createdAt,value
2017-09-06T00:00:14.226Z,91.75
2017-09-06T00:01:12.529Z,91.65
2017-09-06T00:02:12.842Z,91.84
2017-09-06T00:03:12.848Z,92.32
2017-09-06T00:04:12.851Z,93
2017-09-06T00:05:14.767Z,91.17
2017-09-06T00:06:12.859Z,91.31
2017-09-06T00:07:12.855Z,90.88
2017-09-06T00:08:12.856Z,90.4
2017-09-06T00:09:12.873Z,89.34
2017-09-06T00:10:13.519Z,89.53
2017-09-06T00:11:12.877Z,89.63
2017-09-06T00:12:12.558Z,89.72
2017-09-06T00:13:12.561Z,90.5
2017-09-06T00:14:12.877Z,91.17
2017-09-06T00:15:13.851Z,91.36
2017-09-06T00:16:12.881Z,91.84
2017-09-06T00:17:12.889Z,93.38
2017-09-06T00:18:12.576Z,94.44
2017-09-06T00:19:12.906Z,94.82
2017-09-06T00:20:14.231Z,95.6
2017-09-06T00:21:12.593Z,96.37
2017-09-06T00:22:12.912Z,97.72
2017-09-06T00:23:12.898Z,99.99
2017-09-06T00:24:12.900Z,99.99
2017-09-06T00:25:13.665Z,99.99
2017-09-06T00:26:12.597Z,99.99
2017-09-06T00:27:12.605Z,99.99
2017-09-06T00:28:12.915Z,99.99
2017-09-06T00:29:12.913Z,99.99
2017-09-06T00:30:13.906Z,99.99
2017-09-06T00:31:12.921Z,99.99
2017-09-06T00:32:12.922Z,99.99
2017-09-06T00:33:12.924Z,99.99
2017-09-06T00:34:12.934Z,99.99
2017-09-06T00:35:14.299Z,99.99
2017-09-06T00:36:12.658Z,99.99
2017-09-06T00:37:12.625Z,99.99
2017-09-06T00:38:12.934Z,99.99
2017-09-06T00:39:12.947Z,99.99
2017-09-06T00:40:14.188Z,99.99
2017-09-06T00:41:12.947Z,99.99
2017-09-06T00:42:12.950Z,99.99
2017-09-06T00:43:12.641Z,99.99
2017-09-06T00:44:12.950Z,99.99
2017-09-06T00:45:14.469Z,99.99
2017-09-06T00:46:12.954Z,99.99
2017-09-06T00:47:12.667Z,99.99
2017-09-06T00:48:12.959Z,99.99
2017-09-06T00:49:12.970Z,99.99
2017-09-06T00:50:13.889Z,99.99
2017-09-06T00:51:12.972Z,99.99
2017-09-06T00:52:12.972Z,99.99
2017-09-06T00:53:12.665Z,99.99
2017-09-06T00:54:12.978Z,99.99
2017-09-06T00:55:13.742Z,99.99
2017-09-06T00:56:12.977Z,99.99
2017-09-06T00:57:12.983Z,99.99
2017-09-06T00:58:12.680Z,99.99
2017-09-06T00:59:12.987Z,99.99
2017-09-06T01:00:14.251Z,99.99
2017-09-06T01:01:12.998Z,99.99
2017-09-06T01:02:12.993Z,99.99
2017-09-06T01:03:12.992Z,99.99
2017-09-06T01:04:13.004Z,99.99
2017-09-06T01:05:13.919Z,99.99
2017-09-06T01:06:13.003Z,99.99
2017-09-06T01:07:13.002Z,99.99
2017-09-06T01:08:13.014Z,99.99
2017-09-06T01:09:13.010Z,99.99
2017-09-06T01:10:13.561Z,99.99
2017-09-06T01:11:13.014Z,99.99
2017-09-06T01:12:13.015Z,99.99
2017-09-06T01:13:13.019Z,99.99
2017-09-06T01:14:12.712Z,99.99
2017-09-06T01:15:13.925Z,99.99
2017-09-06T01:16:13.028Z,99.99
2017-09-06T01:17:13.037Z,99.99
2017-09-06T01:18:13.030Z,99.99
2017-09-06T01:19:12.727Z,99.99
2017-09-06T01:20:14.153Z,99.99
2017-09-06T01:21:12.740Z,99.99
2017-09-06T01:22:13.049Z,99.99
2017-09-06T01:23:13.051Z,99.99
2017-09-06T01:24:13.052Z,99.99
2017-09-06T01:25:13.726Z,99.99
2017-09-06T01:26:13.055Z,99.99
2017-09-06T01:27:12.745Z,99.99
2017-09-06T01:28:13.056Z,99.99
2017-09-06T01:29:13.058Z,99.99
2017-09-06T01:30:14.106Z,99.99
2017-09-06T01:31:13.066Z,99.99
2017-09-06T01:32:13.068Z,99.99
2017-09-06T01:33:12.769Z,99.99
2017-09-06T01:34:13.072Z,99.99
2017-09-06T01:35:14.453Z,99.99
2017-09-06T01:36:13.075Z,99.99
2017-09-06T01:37:12.776Z,99.99
2017-09-06T01:38:13.083Z,99.99
2017-09-06T01:39:13.084Z,99.99
2017-09-06T01:40:14.422Z,99.99
2017-09-06T01:41:13.097Z,99.99
2017-09-06T01:42:13.093Z,99.99
2017-09-06T01:43:13.096Z,99.99
2017-09-06T01:44:13.095Z,99.99
2017-09-06T01:45:13.847Z,99.99
2017-09-06T01:46:13.101Z,99.99
2017-09-06T01:47:13.105Z,99.99
2017-09-06T01:48:12.796Z,99.99
2017-09-06T01:49:13.108Z,99.99
2017-09-06T01:50:14.150Z,99.99
2017-09-06T01:51:13.118Z,99.99
2017-09-06T01:52:13.123Z,99.99
2017-09-06T01:53:13.122Z,99.99
2017-09-06T01:54:12.815Z,99.99
2017-09-06T01:55:14.390Z,99.99
2017-09-06T01:56:13.125Z,99.99
2017-09-06T01:57:13.132Z,99.99
2017-09-06T01:58:12.818Z,99.99
2017-09-06T01:59:13.136Z,99.99
2017-09-06T02:00:14.067Z,99.99
2017-09-06T02:01:12.825Z,99.99
2017-09-06T02:02:13.136Z,99.99
2017-09-06T02:03:12.842Z,99.99
2017-09-06T02:04:13.175Z,99.99
2017-09-06T02:05:14.486Z,99.99
2017-09-06T02:06:13.145Z,99.99
2017-09-06T02:07:13.150Z,99.99
2017-09-06T02:08:13.150Z,99.99
2017-09-06T02:09:13.154Z,99.99
2017-09-06T02:10:14.695Z,99.99
2017-09-06T02:11:13.158Z,99.99
2017-09-06T02:12:13.172Z,99.99
2017-09-06T02:13:13.161Z,99.99
2017-09-06T02:14:13.962Z,99.99
2017-09-06T02:15:14.586Z,99.99
2017-09-06T02:16:13.164Z,99.99
2017-09-06T02:17:13.215Z,99.99
2017-09-06T02:18:13.186Z,99.99
2017-09-06T02:19:13.183Z,99.99
2017-09-06T02:20:13.907Z,99.99
2017-09-06T02:21:13.185Z,99.99
2017-09-06T02:22:13.192Z,99.99
2017-09-06T02:23:13.192Z,99.99
2017-09-06T02:24:13.187Z,99.99
2017-09-06T02:25:14.686Z,99.99
2017-09-06T02:26:13.186Z,99.99
2017-09-06T02:27:13.186Z,99.99
2017-09-06T02:28:13.190Z,99.99
2017-09-06T02:29:13.191Z,99.99
2017-09-06T02:30:14.620Z,99.99
2017-09-06T02:31:12.884Z,99.99
2017-09-06T02:32:12.889Z,99.99
2017-09-06T02:33:13.201Z,99.99
2017-09-06T02:34:13.202Z,99.99
2017-09-06T02:35:13.929Z,99.99
2017-09-06T02:36:12.895Z,99.99
2017-09-06T02:37:13.215Z,99.99
2017-09-06T02:38:13.213Z,99.99
2017-09-06T02:39:13.214Z,99.99
2017-09-06T02:40:14.479Z,99.99
2017-09-06T02:41:12.904Z,99.99
2017-09-06T02:42:12.909Z,99.99
2017-09-06T02:43:13.230Z,99.99
2017-09-06T02:44:13.220Z,99.99
2017-09-06T02:45:14.209Z,99.99
2017-09-06T02:46:13.242Z,99.99
2017-09-06T02:47:13.224Z,99.99
2017-09-06T02:48:13.226Z,99.99
2017-09-06T02:49:13.227Z,99.99
2017-09-06T02:50:14.697Z,99.99
2017-09-06T02:51:13.240Z,99.99
2017-09-06T02:52:13.245Z,99.99
2017-09-06T02:53:13.246Z,99.99
2017-09-06T02:54:13.245Z,99.99
2017-09-06T02:55:14.671Z,99.99
2017-09-06T02:56:13.245Z,99.99
2017-09-06T02:57:13.246Z,99.99
2017-09-06T02:58:13.245Z,99.99
2017-09-06T02:59:13.265Z,99.99
2017-09-06T03:00:13.812Z,99.99
2017-09-06T03:01:13.261Z,99.99
2017-09-06T03:02:13.257Z,99.99
2017-09-06T03:03:12.959Z,99.99
2017-09-06T03:04:13.263Z,99.99
2017-09-06T03:05:13.848Z,99.99
2017-09-06T03:06:13.264Z,99.99
2017-09-06T03:07:13.263Z,99.99
2017-09-06T03:08:13.265Z,99.99
2017-09-06T03:09:13.266Z,99.99
2017-09-06T03:10:14.691Z,99.99
2017-09-06T03:11:13.271Z,99.99
2017-09-06T03:12:12.967Z,99.99
2017-09-06T03:13:13.293Z,99.99
2017-09-06T03:14:13.277Z,99.99
2017-09-06T03:15:14.285Z,99.99
2017-09-06T03:16:13.291Z,99.99
2017-09-06T03:17:13.292Z,99.99
2017-09-06T03:18:13.295Z,99.99
2017-09-06T03:19:12.984Z,99.99
2017-09-06T03:20:14.416Z,99.99
2017-09-06T03:21:13.301Z,99.99
2017-09-06T03:22:13.302Z,99.99
2017-09-06T03:23:13.323Z,99.99
2017-09-06T03:24:13.304Z,99.99
2017-09-06T03:25:13.529Z,99.99
2017-09-06T03:26:13.318Z,99.99
2017-09-06T03:27:13.009Z,99.99
2017-09-06T03:28:13.307Z,99.99
2017-09-06T03:29:13.000Z,99.99
2017-09-06T03:30:13.734Z,99.99
2017-09-06T03:31:13.312Z,99.99
2017-09-06T03:32:13.310Z,99.99
2017-09-06T03:33:13.018Z,99.99
2017-09-06T03:34:13.316Z,99.99
2017-09-06T03:35:14.651Z,99.99
2017-09-06T03:36:13.323Z,99.99
2017-09-06T03:37:13.016Z,99.99
2017-09-06T03:38:13.329Z,99.99
2017-09-06T03:39:13.327Z,99.99
2017-09-06T03:40:14.059Z,99.99
2017-09-06T03:41:13.331Z,99.99
2017-09-06T03:42:13.328Z,99.99
2017-09-06T03:43:13.026Z,99.99
2017-09-06T03:44:13.331Z,99.99
2017-09-06T03:45:14.719Z,99.99
2017-09-06T03:46:13.337Z,99.99
2017-09-06T03:47:13.058Z,99.99
2017-09-06T03:48:13.338Z,99.99
2017-09-06T03:49:13.344Z,99.99
2017-09-06T03:50:14.686Z,99.99
2017-09-06T03:51:13.352Z,99.99
2017-09-06T03:52:13.352Z,99.99
2017-09-06T03:53:13.371Z,99.99
2017-09-06T03:54:13.043Z,99.99
2017-09-06T03:55:14.118Z,99.99
2017-09-06T03:56:13.388Z,99.99
2017-09-06T03:57:13.355Z,99.99
2017-09-06T03:58:13.374Z,99.99
2017-09-06T03:59:13.370Z,99.99
2017-09-06T04:00:15.047Z,99.99
2017-09-06T04:01:13.373Z,99.99
2017-09-06T04:02:13.069Z,99.99
2017-09-06T04:03:13.410Z,99.99
2017-09-06T04:04:13.376Z,99.99
2017-09-06T04:05:14.752Z,99.99
2017-09-06T04:06:13.070Z,99.99
2017-09-06T04:07:13.374Z,99.99
2017-09-06T04:08:13.377Z,99.99
2017-09-06T04:09:13.380Z,99.99
2017-09-06T04:10:14.344Z,99.99
2017-09-06T04:11:13.393Z,99.99
2017-09-06T04:12:13.392Z,99.99
2017-09-06T04:13:13.394Z,99.99
2017-09-06T04:14:13.085Z,99.99
2017-09-06T04:15:14.467Z,99.99
2017-09-06T04:16:13.393Z,99.99
2017-09-06T04:17:13.402Z,99.99
2017-09-06T04:18:13.399Z,99.99
2017-09-06T04:19:13.408Z,99.99
2017-09-06T04:20:14.927Z,99.99
2017-09-06T04:21:13.417Z,99.99
2017-09-06T04:22:13.406Z,99.99
2017-09-06T04:23:13.465Z,99.99
2017-09-06T04:24:13.410Z,99.99
2017-09-06T04:25:14.883Z,99.99
2017-09-06T04:26:13.416Z,99.99
2017-09-06T04:27:13.420Z,99.99
2017-09-06T04:28:13.424Z,99.99
2017-09-06T04:29:13.424Z,99.99
2017-09-06T04:30:15.072Z,99.99
2017-09-06T04:31:13.428Z,99.99
2017-09-06T04:32:13.432Z,99.99
2017-09-06T04:33:13.427Z,99.99
2017-09-06T04:34:13.120Z,99.99
2017-09-06T04:35:13.912Z,99.99
2017-09-06T04:36:13.431Z,99.99
2017-09-06T04:37:13.434Z,99.99
2017-09-06T04:38:13.435Z,99.99
2017-09-06T04:39:13.436Z,99.99
2017-09-06T04:40:15.928Z,99.99
2017-09-06T04:41:13.150Z,99.99
2017-09-06T04:42:13.443Z,99.99
2017-09-06T04:43:13.152Z,99.99
2017-09-06T04:44:13.446Z,99.99
2017-09-06T04:45:18.005Z,99.99
2017-09-06T04:46:13.140Z,99.99
2017-09-06T04:47:13.453Z,99.99
2017-09-06T04:48:13.466Z,99.99
2017-09-06T04:49:13.147Z,99.99
2017-09-06T04:50:14.904Z,99.99
2017-09-06T04:51:13.150Z,99.99
2017-09-06T04:52:13.463Z,99.99
2017-09-06T04:53:13.156Z,99.99
2017-09-06T04:54:13.160Z,99.99
2017-09-06T04:55:14.183Z,99.99
2017-09-06T04:56:13.472Z,99.99
2017-09-06T04:57:13.474Z,99.99
2017-09-06T04:58:13.473Z,99.99
2017-09-06T04:59:13.168Z,99.99
2017-09-06T05:00:14.935Z,99.99
2017-09-06T05:01:13.480Z,99.99
2017-09-06T05:02:13.483Z,99.99
2017-09-06T05:03:13.176Z,99.99
2017-09-06T05:04:13.487Z,99.99
2017-09-06T05:05:13.961Z,99.99
2017-09-06T05:06:13.498Z,99.99
2017-09-06T05:07:13.497Z,99.99
2017-09-06T05:08:13.493Z,99.99
2017-09-06T05:09:13.191Z,99.99
2017-09-06T05:10:14.782Z,99.99
2017-09-06T05:11:13.506Z,99.99
2017-09-06T05:12:13.503Z,99.99
2017-09-06T05:13:13.511Z,99.99
2017-09-06T05:14:13.509Z,99.99
2017-09-06T05:15:14.405Z,99.99
2017-09-06T05:16:13.207Z,99.99
2017-09-06T05:17:13.514Z,99.99
2017-09-06T05:18:13.515Z,99.99
2017-09-06T05:19:13.525Z,99.99
2017-09-06T05:20:14.251Z,99.99
2017-09-06T05:21:13.223Z,99.99
2017-09-06T05:22:13.536Z,99.99
2017-09-06T05:23:13.528Z,99.99
2017-09-06T05:24:13.533Z,99.99
2017-09-06T05:25:14.834Z,99.99
2017-09-06T05:26:13.230Z,99.99
2017-09-06T05:27:13.228Z,99.99
2017-09-06T05:28:13.260Z,99.99
2017-09-06T05:29:13.549Z,99.99
2017-09-06T05:30:14.865Z,99.99
2017-09-06T05:31:13.237Z,99.99
2017-09-06T05:32:13.557Z,99.99
2017-09-06T05:33:13.558Z,99.99
2017-09-06T05:34:13.257Z,99.99
2017-09-06T05:35:13.954Z,99.99
2017-09-06T05:36:13.251Z,99.99
2017-09-06T05:37:13.563Z,99.99
2017-09-06T05:38:13.566Z,99.99
2017-09-06T05:39:13.562Z,99.99
2017-09-06T05:40:14.799Z,99.99
2017-09-06T05:41:13.667Z,99.99
2017-09-06T05:42:13.272Z,99.99
2017-09-06T05:43:13.572Z,99.99
2017-09-06T05:44:13.573Z,99.99
2017-09-06T05:45:14.957Z,99.99
2017-09-06T05:46:13.523Z,99.99
2017-09-06T05:47:13.586Z,99.99
2017-09-06T05:48:13.592Z,99.99
2017-09-06T05:49:13.588Z,99.99
2017-09-06T05:50:14.716Z,99.99
2017-09-06T05:51:13.289Z,99.99
2017-09-06T05:52:13.595Z,99.99
2017-09-06T05:53:13.610Z,99.99
2017-09-06T05:54:13.301Z,99.99
2017-09-06T05:55:15.057Z,99.99
2017-09-06T05:56:13.616Z,99.99
2017-09-06T05:57:13.607Z,99.99
2017-09-06T05:58:13.610Z,99.99
2017-09-06T05:59:13.620Z,99.99
2017-09-06T06:00:15.227Z,99.99
2017-09-06T06:01:13.622Z,99.99
2017-09-06T06:02:13.633Z,96.61
2017-09-06T06:03:13.633Z,96.61
2017-09-06T06:04:13.632Z,96.8
2017-09-06T06:05:14.787Z,96.7
2017-09-06T06:06:13.325Z,96.99
2017-09-06T06:07:13.636Z,97.19
2017-09-06T06:08:13.640Z,95.69
2017-09-06T06:09:13.643Z,96.08
2017-09-06T06:10:14.828Z,94.34
2017-09-06T06:11:13.652Z,93.77
2017-09-06T06:12:13.342Z,92.52
2017-09-06T06:13:13.651Z,92.9
2017-09-06T06:14:13.657Z,92.9
2017-09-06T06:15:14.820Z,92.71
2017-09-06T06:16:13.666Z,92.9
2017-09-06T06:17:13.666Z,92.22
2017-09-06T06:18:13.362Z,92.32
2017-09-06T06:19:13.671Z,92.22
2017-09-06T06:20:15.116Z,91.94
2017-09-06T06:21:13.378Z,91.65
2017-09-06T06:22:13.373Z,92.18
2017-09-06T06:23:13.687Z,91.41
2017-09-06T06:24:13.690Z,91.69
2017-09-06T06:25:14.461Z,91.46
2017-09-06T06:26:13.698Z,91.31
2017-09-06T06:27:13.699Z,92.08
2017-09-06T06:28:13.702Z,92.51
2017-09-06T06:29:13.703Z,89.43
2017-09-06T06:30:14.428Z,86.43
2017-09-06T06:31:13.715Z,83.58
2017-09-06T06:32:13.715Z,81.45
2017-09-06T06:33:13.417Z,79.56
2017-09-06T06:34:13.726Z,80.28
2017-09-06T06:35:14.562Z,80.08
2017-09-06T06:36:13.732Z,80.43
2017-09-06T06:37:13.735Z,80.62
2017-09-06T06:38:13.780Z,82.32
2017-09-06T06:39:13.744Z,80.72
2017-09-06T06:40:14.625Z,80.14
2017-09-06T06:41:13.452Z,80.53
2017-09-06T06:42:13.453Z,81.26
2017-09-06T06:43:13.769Z,83.09
2017-09-06T06:44:13.775Z,82.86
2017-09-06T06:45:14.585Z,84.41
2017-09-06T06:46:14.580Z,82.96
2017-09-06T06:47:13.779Z,83.34
2017-09-06T06:48:13.780Z,84.59
2017-09-06T06:49:13.788Z,84.11
2017-09-06T06:50:14.934Z,83.69
2017-09-06T06:51:13.797Z,84.07
2017-09-06T06:52:13.800Z,82.53
2017-09-06T06:53:13.494Z,81.76
2017-09-06T06:54:13.499Z,82.92
2017-09-06T06:55:14.342Z,83.88
2017-09-06T06:56:13.815Z,85.13
2017-09-06T06:57:13.821Z,84.84
2017-09-06T06:58:13.839Z,81.51
2017-09-06T06:59:13.522Z,77.01
2017-09-06T07:00:15.222Z,74.58
2017-09-06T07:01:13.537Z,71.72
2017-09-06T07:02:13.848Z,70.88
2017-09-06T07:03:13.537Z,70.78
2017-09-06T07:04:13.540Z,70.2
2017-09-06T07:05:14.480Z,70.01
2017-09-06T07:06:13.550Z,71.14
2017-09-06T07:07:13.866Z,71.97
2017-09-06T07:08:13.867Z,72.74
2017-09-06T07:09:13.872Z,74
2017-09-06T07:10:15.000Z,74.25
2017-09-06T07:11:13.886Z,75.76
2017-09-06T07:12:13.889Z,76.24
2017-09-06T07:13:13.909Z,77.69
2017-09-06T07:14:13.914Z,78.33
2017-09-06T07:15:14.802Z,79.16
2017-09-06T07:16:13.910Z,79.35
2017-09-06T07:17:13.914Z,78.86
2017-09-06T07:18:13.917Z,78.58
2017-09-06T07:19:13.917Z,78.03
2017-09-06T07:20:15.204Z,77.65
2017-09-06T07:21:13.965Z,77.94
2017-09-06T07:22:13.942Z,76.15
2017-09-06T07:23:13.941Z,75.09
2017-09-06T07:24:13.941Z,73.54
2017-09-06T07:25:14.645Z,74.79
2017-09-06T07:26:13.958Z,75.95
2017-09-06T07:27:13.965Z,75.27
2017-09-06T07:28:13.960Z,72.96
2017-09-06T07:29:13.661Z,71.94
2017-09-06T07:30:15.238Z,69.94
2017-09-06T07:31:13.983Z,68.52
2017-09-06T07:32:13.670Z,67.49
2017-09-06T07:33:13.988Z,65.24
2017-09-06T07:34:13.986Z,61.4
2017-09-06T07:35:15.133Z,60.88
2017-09-06T07:36:14.005Z,58.77
2017-09-06T07:37:14.005Z,57.18
2017-09-06T07:38:13.734Z,55.17
2017-09-06T07:39:14.013Z,54.52
2017-09-06T07:40:15.199Z,52.4
2017-09-06T07:41:14.054Z,50.7
2017-09-06T07:42:14.032Z,48
2017-09-06T07:43:14.051Z,48.78
2017-09-06T07:44:13.734Z,47.15
2017-09-06T07:45:14.995Z,46.88
2017-09-06T07:46:14.067Z,48.34
2017-09-06T07:47:14.066Z,49.19
2017-09-06T07:48:14.081Z,50.24
2017-09-06T07:49:14.091Z,51.65
2017-09-06T07:50:14.859Z,53.18
2017-09-06T07:51:14.096Z,54.13
2017-09-06T07:52:14.103Z,53.81
2017-09-06T07:53:14.110Z,55.63
2017-09-06T07:54:14.112Z,57.61
2017-09-06T07:55:15.009Z,59.69
2017-09-06T07:56:14.131Z,61.01
2017-09-06T07:57:13.826Z,62.07
2017-09-06T07:58:13.838Z,60.75
2017-09-06T07:59:14.147Z,59.03
2017-09-06T08:00:14.880Z,58.26
2017-09-06T08:01:13.863Z,59.71
2017-09-06T08:02:13.859Z,58.84
2017-09-06T08:03:14.173Z,56.54
2017-09-06T08:04:13.875Z,55.11
2017-09-06T08:05:14.329Z,54.46
2017-09-06T08:06:14.199Z,52.64
2017-09-06T08:07:14.194Z,51.7
2017-09-06T08:08:14.200Z,52.4
2017-09-06T08:09:14.210Z,51.43
2017-09-06T08:10:15.515Z,53.16
2017-09-06T08:11:14.226Z,54.66
2017-09-06T08:12:14.228Z,55.69
2017-09-06T08:13:14.240Z,58.26
2017-09-06T08:14:14.240Z,59.33
2017-09-06T08:15:14.604Z,57.09
2017-09-06T08:16:14.254Z,54.9
2017-09-06T08:17:14.258Z,53.88
2017-09-06T08:18:14.264Z,51.87
2017-09-06T08:19:14.279Z,51.7
2017-09-06T08:20:15.420Z,52.01
2017-09-06T08:21:13.984Z,52.28
2017-09-06T08:22:14.292Z,50.95
2017-09-06T08:23:14.298Z,50.56
2017-09-06T08:24:14.306Z,50.16
2017-09-06T08:25:15.449Z,49.78
2017-09-06T08:26:14.011Z,50.75
2017-09-06T08:27:14.323Z,51.6
2017-09-06T08:28:14.327Z,52.45
2017-09-06T08:29:14.337Z,54.17
2017-09-06T08:30:14.707Z,55.31
2017-09-06T08:31:14.368Z,55.96
2017-09-06T08:32:14.357Z,56.81
2017-09-06T08:33:14.366Z,57.65
2017-09-06T08:34:14.388Z,59.36
2017-09-06T08:35:15.074Z,60.59
2017-09-06T08:36:14.386Z,61.72
2017-09-06T08:37:14.085Z,61.79
2017-09-06T08:38:14.398Z,62.27
2017-09-06T08:39:14.095Z,62.66
2017-09-06T08:40:15.218Z,62.27
2017-09-06T08:41:14.414Z,61.5
2017-09-06T08:42:14.111Z,61.33
2017-09-06T08:43:14.427Z,60.66
2017-09-06T08:44:14.433Z,60.57
2017-09-06T08:45:15.540Z,60.72
2017-09-06T08:46:14.138Z,61.02
2017-09-06T08:47:14.450Z,61.6
2017-09-06T08:48:14.460Z,61.21
2017-09-06T08:49:14.154Z,61.79
2017-09-06T08:50:15.311Z,61.6
2017-09-06T08:51:14.473Z,61.21
2017-09-06T08:52:14.478Z,61.11
2017-09-06T08:53:14.483Z,61.4
2017-09-06T08:54:14.487Z,61.02
2017-09-06T08:55:15.731Z,60.34
2017-09-06T08:56:14.196Z,60.34
2017-09-06T08:57:14.511Z,61.11
2017-09-06T08:58:14.234Z,61.69
2017-09-06T08:59:14.231Z,62.05
2017-09-06T09:00:15.573Z,62.24
2017-09-06T09:01:14.528Z,63.21
2017-09-06T09:02:14.529Z,62.53
2017-09-06T09:03:14.548Z,61.47
2017-09-06T09:56:50.978Z,60.44
2017-09-06T09:57:32.117Z,60.89
2017-09-06T09:58:32.114Z,60.69
2017-09-06T09:59:32.119Z,60.89
2017-09-06T10:00:32.126Z,61.73
2017-09-06T10:01:31.832Z,62.21
2017-09-06T10:02:32.140Z,62.79
2017-09-06T10:03:32.139Z,61.92
2017-09-06T10:04:32.147Z,62.86
2017-09-06T10:05:32.150Z,61.99
2017-09-06T10:06:32.156Z,62.66
2017-09-06T10:07:32.175Z,62.28
2017-09-06T10:08:32.162Z,62.95
2017-09-06T10:09:32.201Z,62.18
2017-09-06T10:10:31.878Z,61.92
2017-09-06T10:11:31.889Z,61.54
2017-09-06T10:12:34.021Z,60.96
2017-09-06T10:13:32.186Z,60.67
2017-09-06T10:14:32.207Z,60.28
2017-09-06T10:15:31.925Z,60.28
2017-09-06T10:16:32.212Z,60.31
2017-09-06T10:17:32.203Z,59.73
2017-09-06T10:18:32.221Z,58.8
2017-09-06T10:19:32.220Z,58.4
2017-09-06T10:20:31.923Z,56.7
2017-09-06T10:21:32.234Z,56.6
2017-09-06T10:22:32.197Z,57.79
2017-09-06T10:23:31.929Z,56.92
2017-09-06T10:24:32.239Z,56.34
2017-09-06T10:25:32.253Z,56.62
2017-09-06T10:26:31.947Z,55.58
2017-09-06T10:27:32.267Z,56.36
2017-09-06T10:28:31.955Z,56.62
2017-09-06T10:29:32.262Z,57.3
2017-09-06T10:30:32.267Z,57.4
2017-09-06T10:31:32.277Z,58.14
2017-09-06T10:32:32.293Z,58.14
2017-09-06T10:33:31.975Z,58.89
2017-09-06T10:34:31.994Z,59.28
2017-09-06T10:35:32.303Z,58.6
2017-09-06T10:36:31.989Z,59.28
2017-09-06T10:37:32.321Z,59.56
2017-09-06T10:38:32.014Z,59.66
2017-09-06T10:39:32.322Z,58.72
2017-09-06T10:40:32.313Z,58.72
2017-09-06T10:41:32.328Z,58.92
2017-09-06T10:42:34.373Z,59.5
2017-09-06T10:43:32.051Z,59.31
2017-09-06T10:44:32.351Z,59.01
2017-09-06T10:45:32.359Z,58.24
2017-09-06T10:46:32.370Z,58.34
2017-09-06T10:47:32.045Z,58.34
2017-09-06T10:48:32.370Z,57.95
2017-09-06T10:49:32.375Z,58.47
2017-09-06T10:50:32.370Z,58.72
2017-09-06T10:51:32.380Z,58.82
2017-09-06T10:52:32.385Z,59.31
2017-09-06T10:53:32.388Z,59.21
2017-09-06T10:54:32.082Z,59.79
2017-09-06T10:55:32.388Z,60.44
2017-09-06T10:56:32.415Z,61.6
2017-09-06T10:57:32.408Z,61.47
2017-09-06T10:58:32.430Z,62.82
2017-09-06T10:59:32.419Z,65.59
2017-09-06T11:00:32.423Z,69.46
2017-09-06T11:01:32.425Z,71.45
2017-09-06T11:02:32.141Z,73
2017-09-06T11:03:32.435Z,75.47
2017-09-06T11:04:32.118Z,78.03
2017-09-06T11:05:32.446Z,77.23
2017-09-06T11:06:32.435Z,78.09
2017-09-06T11:07:32.447Z,78.38
2017-09-06T11:08:32.137Z,79.25
2017-09-06T11:09:32.454Z,79.74
2017-09-06T11:10:32.461Z,79.83
2017-09-06T11:11:32.467Z,80.51
2017-09-06T11:12:32.461Z,79.1
2017-09-06T11:13:32.467Z,80.35
2017-09-06T11:14:32.476Z,78.91
2017-09-06T11:15:32.482Z,77.98
2017-09-06T11:16:32.476Z,75.95
2017-09-06T11:17:32.490Z,75.67
2017-09-06T11:18:32.178Z,75.51
2017-09-06T11:19:32.196Z,72.8
2017-09-06T11:20:32.493Z,72.74
2017-09-06T11:21:32.184Z,72.16
2017-09-06T11:22:32.202Z,69.94
2017-09-06T11:23:32.501Z,72.3
2017-09-06T11:24:32.506Z,70.56
2017-09-06T11:25:32.511Z,72.68
2017-09-06T11:26:32.207Z,72.68
2017-09-06T11:27:32.216Z,72.45
2017-09-06T11:28:32.529Z,71.78
2017-09-06T11:29:32.247Z,70.36
2017-09-06T11:30:32.239Z,71.3
2017-09-06T11:31:32.542Z,74.29
2017-09-06T11:32:32.542Z,77.05
2017-09-06T11:33:32.549Z,79.77
2017-09-06T11:34:32.249Z,82.78
2017-09-06T11:35:32.556Z,84.86
2017-09-06T11:36:32.602Z,88.57
2017-09-06T11:37:32.253Z,89.58
2017-09-06T11:38:32.570Z,90.93
2017-09-06T11:39:32.260Z,91.75
2017-09-06T11:40:32.592Z,92.04
2017-09-06T11:41:32.580Z,93.1
2017-09-06T11:42:32.581Z,94.49
2017-09-06T11:43:33.686Z,95.65
2017-09-06T11:44:32.593Z,95.45
2017-09-06T11:45:32.279Z,95.17
2017-09-06T11:46:32.593Z,96.8
2017-09-06T11:47:32.595Z,97.38
2017-09-06T11:48:32.292Z,93.48
2017-09-06T11:49:32.290Z,94.78
2017-09-06T11:50:32.612Z,94.45
2017-09-06T11:51:32.312Z,94.92
2017-09-06T11:52:32.617Z,94.73
2017-09-06T11:53:32.612Z,94.83
2017-09-06T11:54:32.306Z,92.57
2017-09-06T11:55:32.616Z,92.08
2017-09-06T11:56:32.624Z,90.35
2017-09-06T11:57:32.621Z,91.17
2017-09-06T11:58:33.425Z,91.99
2017-09-06T11:59:32.636Z,92.37
2017-09-06T12:00:32.323Z,89.09
2017-09-06T12:01:32.645Z,90
2017-09-06T12:02:32.332Z,90.58
2017-09-06T12:03:32.332Z,89.04
2017-09-06T12:04:32.706Z,86.29
2017-09-06T12:05:33.146Z,83.69
2017-09-06T12:06:32.538Z,84.21
2017-09-06T12:07:32.656Z,82.09
2017-09-06T12:08:32.665Z,79.19
2017-09-06T12:09:32.685Z,79.77
2017-09-06T12:10:32.372Z,79.64
2017-09-06T12:11:32.675Z,79.74
2017-09-06T12:12:32.698Z,79.79
2017-09-06T12:13:32.686Z,80.76
2017-09-06T12:14:32.375Z,82.06
2017-09-06T12:15:32.687Z,82.54
2017-09-06T12:16:32.688Z,83.12
2017-09-06T12:17:32.689Z,83.56
2017-09-06T12:18:32.387Z,84.14
2017-09-06T12:19:32.399Z,82.6
2017-09-06T12:20:32.704Z,82.02
2017-09-06T12:21:32.400Z,82.35
2017-09-06T12:22:32.710Z,83.99
2017-09-06T12:23:32.412Z,84.09
2017-09-06T12:24:32.409Z,83.31
2017-09-06T12:25:32.721Z,82.06
2017-09-06T12:26:32.419Z,82.45
2017-09-06T12:27:32.732Z,83.51
2017-09-06T12:28:32.729Z,81.58
2017-09-06T12:29:32.437Z,81.96
2017-09-06T12:30:32.435Z,81.39
2017-09-06T12:31:32.742Z,81.87
2017-09-06T12:32:32.788Z,82.26
2017-09-06T12:33:32.441Z,82.64
2017-09-06T12:34:32.753Z,83.56
2017-09-06T12:35:32.755Z,83.37
2017-09-06T12:36:32.760Z,82.45
2017-09-06T12:37:32.460Z,80.81
2017-09-06T12:38:32.764Z,81.29
2017-09-06T12:39:32.769Z,83.61
2017-09-06T12:40:32.777Z,82.16
2017-09-06T12:41:32.472Z,80.91
2017-09-06T12:42:32.477Z,80.23
2017-09-06T12:43:32.783Z,82.06
2017-09-06T12:44:32.795Z,80.91
2017-09-06T12:45:32.480Z,80.18
2017-09-06T12:46:32.791Z,77
2017-09-06T12:47:32.797Z,77.96
2017-09-06T12:48:32.809Z,76.42
2017-09-06T12:49:32.803Z,75.26
2017-09-06T12:50:32.496Z,75.68
2017-09-06T12:51:32.808Z,77.81
2017-09-06T12:52:32.812Z,76.45
2017-09-06T12:53:32.813Z,75.68
2017-09-06T12:54:32.817Z,75.4
2017-09-06T12:55:32.512Z,74.14
2017-09-06T12:56:32.825Z,72.99
2017-09-06T12:57:32.826Z,71.54
2017-09-06T12:58:32.527Z,71.83
2017-09-06T12:59:32.528Z,70.96
2017-09-06T13:00:32.846Z,71.15
2017-09-06T13:01:32.542Z,71.5
2017-09-06T13:02:32.843Z,71.31
2017-09-06T13:03:32.540Z,71.02
2017-09-06T13:04:32.852Z,71.02
2017-09-06T13:05:32.854Z,71.22
2017-09-06T13:06:32.550Z,71.79
2017-09-06T13:07:32.859Z,70.92
2017-09-06T13:08:32.880Z,70.64
2017-09-06T13:09:32.868Z,70.25
2017-09-06T13:10:32.669Z,70.15
2017-09-06T13:11:32.570Z,69.57
2017-09-06T13:12:32.908Z,69.61
2017-09-06T13:13:32.580Z,68.84
2017-09-06T13:14:32.580Z,68.93
2017-09-06T13:15:32.576Z,68.55
2017-09-06T13:16:32.905Z,68.16
2017-09-06T13:17:32.601Z,67.88
2017-09-06T13:18:32.904Z,68.84
2017-09-06T13:19:32.596Z,68.55
2017-09-06T13:20:32.905Z,68.16
2017-09-06T13:21:32.600Z,67.68
2017-09-06T13:22:32.916Z,66.43
2017-09-06T13:23:32.615Z,66.91
2017-09-06T13:24:32.919Z,67
2017-09-06T13:25:32.654Z,67.97
2017-09-06T13:26:32.613Z,67.68
2017-09-06T13:27:32.620Z,68.16
2017-09-06T13:28:32.930Z,67.3
2017-09-06T13:29:32.624Z,67.88
2017-09-06T13:30:32.935Z,66.75
2017-09-06T13:31:32.628Z,66.94
2017-09-06T13:32:32.949Z,66.85
2017-09-06T13:33:32.640Z,66.08
2017-09-06T13:34:32.958Z,64.92
2017-09-06T13:35:32.956Z,64.82
2017-09-06T13:36:32.827Z,64.92
2017-09-06T13:37:32.660Z,65.59
2017-09-06T13:38:33.077Z,65.2
2017-09-06T13:39:32.663Z,64.92
2017-09-06T13:40:32.663Z,65.69
2017-09-06T13:41:32.729Z,65.98
2017-09-06T13:42:32.991Z,66.27
2017-09-06T13:43:33.381Z,65.2
2017-09-06T13:44:33.244Z,65.2
2017-09-06T13:45:32.913Z,65.3
2017-09-06T13:46:34.439Z,64.34